Time;durP1;ratioP1;P1;durP2;ratioP2;P2;SDS_P1;SDS_P2;PMS_P1;PMS_P2;Temp;Humidity;BMP_temperature;BMP_pressure;BME280_temperature;BME280_humidity;BME280_pressure;Samples;Min_cycle;Max_cycle;Signal;HPM_P1;HPM_P2
2020/12/21 00:01:31;;;;;;;2.23;0.67;;;;;;;7.78;100.00;101370.09;4962601;28;20193;-76
2020/12/21 00:03:56;;;;;;;3.33;0.57;;;;;;;7.79;100.00;101372.44;4948463;28;20200;-76
2020/12/21 00:06:22;;;;;;;3.10;0.77;;;;;;;7.75;100.00;101376.06;4948572;28;20276;-76
2020/12/21 00:08:47;;;;;;;1.97;0.57;;;;;;;7.66;100.00;101362.69;4953648;28;20218;-76
2020/12/21 00:11:13;;;;;;;1.60;0.33;;;;;;;7.57;100.00;101359.22;4969795;28;20245;-76
2020/12/21 00:13:44;;;;;;;2.10;0.40;;;;;;;7.56;100.00;101349.59;4949744;28;20626;-76
2020/12/21 00:16:10;;;;;;;1.80;0.30;;;;;;;7.63;100.00;101351.78;4953865;28;20606;-76
2020/12/21 00:18:36;;;;;;;2.73;0.50;;;;;;;7.74;100.00;101347.69;4959935;28;22139;-76
2020/12/21 00:21:02;;;;;;;2.37;0.63;;;;;;;7.49;100.00;101335.13;4964268;28;20563;-76
2020/12/21 00:23:28;;;;;;;2.17;0.50;;;;;;;7.30;100.00;101348.81;4966758;28;21139;-76
2020/12/21 00:25:53;;;;;;;2.30;0.47;;;;;;;7.46;100.00;101346.44;4959151;28;20230;-76
2020/12/21 00:28:19;;;;;;;2.00;0.40;;;;;;;7.66;100.00;101348.50;4944476;29;20298;-76
2020/12/21 00:30:44;;;;;;;1.93;0.40;;;;;;;7.59;100.00;101348.97;4970401;28;20628;-76
2020/12/21 00:33:10;;;;;;;3.07;0.50;;;;;;;7.42;100.00;101354.34;4963490;28;20182;-76
2020/12/21 00:35:35;;;;;;;2.40;0.50;;;;;;;7.41;100.00;101362.69;4941781;28;20217;-76
2020/12/21 00:38:01;;;;;;;2.50;0.73;;;;;;;7.45;100.00;101366.31;4954228;28;20191;-76
2020/12/21 00:40:28;;;;;;;3.03;0.70;;;;;;;7.26;100.00;101367.41;4949130;28;20221;-76
2020/12/21 00:42:53;;;;;;;1.80;0.30;;;;;;;7.32;100.00;101365.38;4951307;28;20663;-76
2020/12/21 00:45:19;;;;;;;3.63;0.60;;;;;;;7.35;100.00;101361.28;4937806;28;20509;-76
2020/12/21 00:47:45;;;;;;;2.87;0.50;;;;;;;7.34;100.00;101362.41;4971128;28;20201;-76
2020/12/21 00:50:11;;;;;;;1.70;0.50;;;;;;;7.44;100.00;101354.00;4954169;28;20454;-76
2020/12/21 00:52:37;;;;;;;2.40;0.60;;;;;;;7.28;100.00;101356.38;4947881;28;20182;-76
2020/12/21 00:55:03;;;;;;;1.70;0.40;;;;;;;7.43;100.00;101357.81;4963385;28;20814;-76
2020/12/21 00:57:33;;;;;;;3.10;0.40;;;;;;;7.39;100.00;101354.97;4962283;28;20185;-76
2020/12/21 01:00:00;;;;;;;1.80;0.40;;;;;;;7.48;100.00;101354.97;4967955;28;20454;-76
2020/12/21 01:02:26;;;;;;;2.20;0.47;;;;;;;7.52;100.00;101355.91;4948762;28;20448;-76
2020/12/21 01:04:51;;;;;;;1.90;0.33;;;;;;;7.44;100.00;101359.38;4959380;28;20477;-75
2020/12/21 01:07:16;;;;;;;2.47;0.60;;;;;;;7.45;100.00;101352.94;4971588;28;20465;-76
2020/12/21 01:09:46;;;;;;;1.83;0.40;;;;;;;7.32;100.00;101355.44;4968044;28;20194;-76
2020/12/21 01:12:15;;;;;;;2.20;0.70;;;;;;;7.37;100.00;101357.19;4968682;28;20194;-76
2020/12/21 01:14:42;;;;;;;1.63;0.40;;;;;;;7.24;100.00;101369.63;4944242;29;20465;-76
2020/12/21 01:17:08;;;;;;;1.37;0.23;;;;;;;7.15;100.00;101365.38;4974331;28;20946;-76
2020/12/21 01:19:35;;;;;;;2.23;0.40;;;;;;;7.15;100.00;101368.84;4966480;28;20896;-76
2020/12/21 01:22:00;;;;;;;1.30;0.20;;;;;;;7.00;100.00;101358.59;4951368;28;20441;-76
2020/12/21 01:24:26;;;;;;;1.70;0.30;;;;;;;7.08;100.00;101362.38;4970091;28;20456;-76
2020/12/21 01:26:51;;;;;;;1.67;0.30;;;;;;;7.07;100.00;101368.81;4962607;28;20191;-76
2020/12/21 01:29:17;;;;;;;1.80;0.30;;;;;;;6.99;100.00;101369.59;4967828;28;20213;-76
2020/12/21 01:31:43;;;;;;;2.87;0.47;;;;;;;7.08;100.00;101373.84;4948891;29;20331;-76
2020/12/21 01:34:09;;;;;;;1.60;0.20;;;;;;;7.18;100.00;101370.09;4973860;28;20253;-76
2020/12/21 01:36:35;;;;;;;1.93;0.30;;;;;;;7.28;100.00;101375.94;4957593;28;20552;-76
2020/12/21 01:39:01;;;;;;;1.80;0.30;;;;;;;7.24;100.00;101376.84;4972043;28;20984;-76
2020/12/21 01:41:26;;;;;;;3.87;0.60;;;;;;;7.08;100.00;101368.50;4955837;28;20261;-76
2020/12/21 01:43:56;;;;;;;1.70;0.40;;;;;;;7.11;100.00;101378.59;4964308;28;20537;-76
2020/12/21 01:46:22;;;;;;;2.20;0.43;;;;;;;7.05;100.00;101369.13;4949905;28;20216;-75
2020/12/21 01:48:47;;;;;;;1.87;0.63;;;;;;;7.03;100.00;101378.56;4962803;28;20478;-75
2020/12/21 01:51:27;;;;;;;2.60;0.30;;;;;;;7.18;100.00;101381.59;4955993;28;20950;-75
2020/12/21 01:53:54;;;;;;;1.80;0.17;;;;;;;7.10;100.00;101377.00;4937938;29;20613;-75
2020/12/21 01:56:20;;;;;;;1.40;0.20;;;;;;;7.15;100.00;101384.91;4970199;28;20445;-75
2020/12/21 01:58:47;;;;;;;1.40;0.23;;;;;;;6.97;100.00;101383.28;4964474;28;20480;-75
2020/12/21 02:01:14;;;;;;;3.73;0.77;;;;;;;7.06;100.00;101373.41;4947701;28;20449;-75
2020/12/21 02:03:41;;;;;;;1.60;0.40;;;;;;;6.99;100.00;101383.75;4974226;28;20447;-75
2020/12/21 02:06:07;;;;;;;2.47;0.63;;;;;;;6.93;100.00;101382.34;4963945;28;20484;-75
2020/12/21 02:08:32;;;;;;;2.60;0.50;;;;;;;6.98;100.00;101382.22;4973233;28;20468;-75
2020/12/21 02:10:58;;;;;;;2.37;0.30;;;;;;;6.98;100.00;101382.22;4964246;28;20248;-75
2020/12/21 02:13:23;;;;;;;1.40;0.20;;;;;;;6.95;100.00;101376.69;4969982;28;20205;-75
2020/12/21 02:15:49;;;;;;;1.87;0.33;;;;;;;7.05;100.00;101382.53;4964997;28;20206;-75
2020/12/21 02:18:15;;;;;;;1.20;0.10;;;;;;;7.21;100.00;101378.28;4949181;28;20288;-75
2020/12/21 02:20:41;;;;;;;1.40;0.30;;;;;;;7.14;100.00;101377.97;4950874;28;20253;-75
2020/12/21 02:23:06;;;;;;;1.90;0.43;;;;;;;7.12;100.00;101390.88;4953467;28;20454;-75
2020/12/21 02:25:32;;;;;;;1.73;0.20;;;;;;;7.26;100.00;101380.00;4970037;28;20213;-75
2020/12/21 02:27:57;;;;;;;1.80;0.40;;;;;;;7.34;100.00;101381.16;4940253;28;20344;-75
2020/12/21 02:30:23;;;;;;;2.07;0.53;;;;;;;7.46;100.00;101383.97;4969230;28;20193;-75
2020/12/21 02:32:48;;;;;;;3.73;0.20;;;;;;;7.48;100.00;101381.75;4971176;28;20268;-75
2020/12/21 02:35:14;;;;;;;3.30;0.30;;;;;;;7.51;100.00;101379.22;4948119;28;20225;-75
2020/12/21 02:37:41;;;;;;;2.47;0.20;;;;;;;7.54;100.00;101372.47;4952198;28;20182;-75
2020/12/21 02:40:07;;;;;;;2.10;0.40;;;;;;;7.55;100.00;101374.81;4970950;28;20193;-75
2020/12/21 02:42:34;;;;;;;1.93;0.40;;;;;;;7.50;100.00;101374.19;4968629;28;20536;-75
2020/12/21 02:44:59;;;;;;;1.70;0.30;;;;;;;7.52;100.00;101380.81;4951387;28;20359;-75
2020/12/21 02:47:25;;;;;;;1.30;0.30;;;;;;;7.56;100.00;101379.09;4952245;28;20504;-75
2020/12/21 02:49:50;;;;;;;1.53;0.30;;;;;;;7.57;100.00;101372.59;4950844;28;20232;-75
2020/12/21 02:52:16;;;;;;;1.80;0.40;;;;;;;7.58;100.00;101376.88;4966622;28;20553;-75
2020/12/21 02:54:45;;;;;;;2.33;0.40;;;;;;;7.54;100.00;101369.78;4971244;28;20213;-75
2020/12/21 02:57:12;;;;;;;2.80;0.50;;;;;;;7.39;100.00;101371.06;4937914;28;20243;-75
2020/12/21 02:59:38;;;;;;;2.77;0.50;;;;;;;7.49;100.00;101369.94;4948784;28;20496;-75
2020/12/21 03:02:03;;;;;;;1.73;0.30;;;;;;;7.52;100.00;101369.31;4969538;28;20442;-75
2020/12/21 03:04:29;;;;;;;1.20;0.10;;;;;;;7.64;100.00;101375.63;4967821;28;20675;-75
2020/12/21 03:06:54;;;;;;;1.50;0.27;;;;;;;7.74;100.00;101372.59;4936631;28;20226;-75
2020/12/21 03:09:20;;;;;;;1.53;0.20;;;;;;;7.77;100.00;101376.53;4953675;28;20185;-75
2020/12/21 03:11:46;;;;;;;1.70;0.23;;;;;;;7.79;100.00;101372.44;4966711;28;20518;-75
2020/12/21 03:14:12;;;;;;;1.40;0.20;;;;;;;7.66;100.00;101378.78;4950117;28;20228;-75
2020/12/21 03:16:38;;;;;;;1.73;0.40;;;;;;;7.72;100.00;101374.03;4970195;28;20446;-75
2020/12/21 03:19:04;;;;;;;1.57;0.20;;;;;;;7.83;100.00;101367.22;4963807;28;20298;-75
2020/12/21 03:21:31;;;;;;;1.60;0.20;;;;;;;7.76;100.00;101372.28;4966839;28;20186;-75
2020/12/21 03:23:56;;;;;;;2.03;0.40;;;;;;;7.50;100.00;101372.31;4936080;28;20448;-75
2020/12/21 03:26:22;;;;;;;1.70;0.30;;;;;;;7.27;100.00;101373.56;4953910;28;20453;-75
2020/12/21 03:28:48;;;;;;;1.50;0.30;;;;;;;7.37;100.00;101383.19;4961838;28;20881;-75
2020/12/21 03:31:13;;;;;;;1.80;0.37;;;;;;;7.44;100.00;101381.59;4946031;28;20192;-75
2020/12/21 03:33:39;;;;;;;2.87;0.40;;;;;;;7.58;100.00;101379.56;4969298;28;20185;-75
2020/12/21 03:36:04;;;;;;;1.63;0.30;;;;;;;7.50;100.00;101385.72;4967385;28;20284;-75
2020/12/21 03:38:30;;;;;;;1.50;0.23;;;;;;;7.47;100.00;101377.53;4952024;28;20178;-75
2020/12/21 03:40:55;;;;;;;1.77;0.27;;;;;;;7.25;100.00;101365.84;4966246;28;20220;-75
2020/12/21 03:43:21;;;;;;;1.20;0.20;;;;;;;7.26;100.00;101363.94;4949963;28;20236;-75
2020/12/21 03:45:47;;;;;;;1.40;0.20;;;;;;;7.18;100.00;101368.19;4962944;28;20698;-75
2020/12/21 03:48:13;;;;;;;2.00;0.37;;;;;;;7.41;100.00;101371.53;4970471;28;20217;-74
2020/12/21 03:50:39;;;;;;;1.70;0.30;;;;;;;7.36;100.00;101365.53;4969865;28;20448;-75
2020/12/21 03:53:04;;;;;;;2.07;0.40;;;;;;;7.38;100.00;101371.34;4953022;28;20438;-75
2020/12/21 03:55:30;;;;;;;2.10;0.30;;;;;;;7.39;100.00;101368.38;4968615;28;20261;-75
2020/12/21 03:57:55;;;;;;;1.40;0.30;;;;;;;7.44;100.00;101365.53;4971553;28;20213;-75
2020/12/21 04:00:21;;;;;;;2.73;0.50;;;;;;;7.60;100.00;101360.47;4956598;28;20187;-75
2020/12/21 04:02:46;;;;;;;2.80;0.30;;;;;;;7.55;100.00;101363.34;4950790;28;20178;-75
2020/12/21 04:05:12;;;;;;;1.40;0.30;;;;;;;7.46;100.00;101365.22;4966506;28;20217;-75
2020/12/21 04:07:38;;;;;;;1.30;0.30;;;;;;;7.33;100.00;101364.28;4970345;28;20201;-75
2020/12/21 04:10:05;;;;;;;1.50;0.30;;;;;;;7.46;100.00;101365.22;4969319;28;20228;-75
2020/12/21 04:12:31;;;;;;;1.77;0.30;;;;;;;7.50;100.00;101364.28;4966064;28;20441;-75
2020/12/21 04:14:57;;;;;;;1.57;0.30;;;;;;;7.51;100.00;101370.44;4963038;28;20459;-75
2020/12/21 04:17:22;;;;;;;2.10;0.30;;;;;;;7.56;100.00;101372.94;4951774;28;20212;-75
2020/12/21 04:19:47;;;;;;;1.60;0.30;;;;;;;7.72;100.00;101371.34;4969180;28;20186;-75
2020/12/21 04:22:13;;;;;;;1.60;0.20;;;;;;;7.71;100.00;101377.81;4968846;28;20184;-75
2020/12/21 04:24:38;;;;;;;1.70;0.30;;;;;;;7.64;100.00;101364.09;4967807;28;20230;-75
2020/12/21 04:27:04;;;;;;;2.00;0.40;;;;;;;7.74;100.00;101369.16;4965044;28;20579;-75
2020/12/21 04:29:29;;;;;;;3.03;0.20;;;;;;;7.67;100.00;101366.94;4969596;28;20196;-75
2020/12/21 04:31:55;;;;;;;1.30;0.20;;;;;;;7.48;100.00;101371.03;4968554;28;20686;-75
2020/12/21 04:34:23;;;;;;;1.73;0.30;;;;;;;7.58;100.00;101366.16;4968103;28;20186;-75
2020/12/21 04:36:49;;;;;;;1.70;0.20;;;;;;;7.65;100.00;101366.47;4964447;28;20441;-75
2020/12/21 04:39:15;;;;;;;1.80;0.40;;;;;;;7.71;100.00;101369.75;4966194;28;20445;-75
2020/12/21 04:41:40;;;;;;;1.83;0.30;;;;;;;7.63;100.00;101367.88;4960617;28;20186;-75
2020/12/21 04:44:06;;;;;;;2.90;0.40;;;;;;;7.57;100.00;101366.50;4968858;28;20182;-75
2020/12/21 04:46:32;;;;;;;2.37;0.30;;;;;;;7.75;100.00;101379.53;4949350;28;20241;-75
2020/12/21 04:49:00;;;;;;;1.97;0.30;;;;;;;7.78;100.00;101368.16;4973444;28;20481;-75
2020/12/21 04:51:32;;;;;;;2.70;0.40;;;;;;;7.75;100.00;101370.69;4943541;28;20440;-75
2020/12/21 04:53:58;;;;;;;2.07;0.50;;;;;;;7.70;100.00;101362.84;4970970;28;21200;-75
2020/12/21 04:56:24;;;;;;;1.40;0.27;;;;;;;7.77;100.00;101366.63;4971268;28;20488;-75
2020/12/21 04:58:50;;;;;;;1.50;0.27;;;;;;;7.80;100.00;101373.25;4972913;28;20233;-75
2020/12/21 05:01:15;;;;;;;1.93;0.50;;;;;;;7.95;100.00;101370.84;4971957;28;20858;-75
2020/12/21 05:03:40;;;;;;;1.93;0.30;;;;;;;8.04;100.00;101366.25;4967630;28;20178;-75
2020/12/21 05:06:07;;;;;;;1.53;0.20;;;;;;;8.13;100.00;101360.84;4969745;28;20816;-75
2020/12/21 05:08:32;;;;;;;1.50;0.27;;;;;;;7.97;100.00;101368.63;4974189;28;20214;-75
2020/12/21 05:11:03;;;;;;;2.07;0.37;;;;;;;8.09;100.00;101371.41;4956066;28;20800;-75
2020/12/21 05:13:30;;;;;;;1.40;0.20;;;;;;;8.03;100.00;101371.94;4948195;28;20190;-75
2020/12/21 05:15:56;;;;;;;1.73;0.30;;;;;;;8.10;100.00;101372.22;4969237;28;20461;-75
2020/12/21 05:18:24;;;;;;;2.03;0.43;;;;;;;8.07;100.00;101367.50;4956466;28;20794;-75
2020/12/21 05:21:03;;;;;;;1.77;0.30;;;;;;;8.01;100.00;101368.78;4971436;28;20487;-75
2020/12/21 05:23:30;;;;;;;3.10;0.60;;;;;;;8.03;100.00;101359.28;4951089;28;20445;-75
2020/12/21 05:26:08;;;;;;;2.10;0.60;;;;;;;8.14;100.00;101367.78;4965741;28;21001;-75
2020/12/21 05:28:39;;;;;;;1.83;0.40;;;;;;;8.05;100.00;101364.34;4969235;28;20469;-75
2020/12/21 05:31:07;;;;;;;1.20;0.10;;;;;;;8.08;100.00;101364.50;4967501;28;20441;-75
2020/12/21 05:33:34;;;;;;;2.97;0.30;;;;;;;8.17;100.00;101367.94;4971072;28;20512;-75
2020/12/21 05:36:11;;;;;;;1.60;0.30;;;;;;;8.36;100.00;101369.47;4962515;28;20473;-75
2020/12/21 05:38:37;;;;;;;1.60;0.23;;;;;;;8.19;100.00;101370.28;4944298;28;20856;-75
2020/12/21 05:41:16;;;;;;;1.30;0.20;;;;;;;8.23;100.00;101377.38;4961946;28;20544;-76
2020/12/21 05:43:42;;;;;;;2.03;0.33;;;;;;;8.13;100.00;101374.25;4955880;28;20448;-76
2020/12/21 05:46:14;;;;;;;1.30;0.20;;;;;;;8.17;100.00;101375.19;4962190;28;20569;-76
2020/12/21 05:48:41;;;;;;;1.33;0.10;;;;;;;8.06;100.00;101371.28;4953491;28;20487;-77
2020/12/21 05:51:08;;;;;;;1.67;0.40;;;;;;;8.20;100.00;101369.19;4957222;28;20473;-75
2020/12/21 05:53:40;;;;;;;1.67;0.20;;;;;;;8.05;100.00;101367.78;4966496;28;20816;-75
2020/12/21 05:56:06;;;;;;;2.10;0.20;;;;;;;8.07;100.00;101362.13;4952632;28;20501;-76
2020/12/21 05:58:33;;;;;;;1.87;0.57;;;;;;;8.07;100.00;101359.47;4955877;28;20543;-76
2020/12/21 06:01:04;;;;;;;1.50;0.30;;;;;;;8.01;100.00;101364.19;4958901;28;20540;-76
2020/12/21 06:03:37;;;;;;;1.77;0.43;;;;;;;7.91;100.00;101363.75;4963696;28;20462;-76
2020/12/21 06:06:13;;;;;;;1.60;0.20;;;;;;;8.11;100.00;101365.72;4954333;28;21064;-75
2020/12/21 06:08:39;;;;;;;1.60;0.30;;;;;;;8.08;100.00;101363.69;4954708;28;20556;-75
2020/12/21 06:11:21;;;;;;;2.17;0.33;;;;;;;8.40;100.00;101376.56;4939286;28;21026;-76
2020/12/21 06:13:53;;;;;;;1.50;0.20;;;;;;;8.53;100.00;101374.78;4960226;28;20493;-77
2020/12/21 06:16:19;;;;;;;1.50;0.20;;;;;;;8.44;100.00;101371.34;4954180;28;20559;-76
2020/12/21 06:19:04;;;;;;;1.67;0.37;;;;;;;8.11;100.00;101379.13;4954140;28;20526;-76
2020/12/21 06:21:35;;;;;;;2.73;0.40;;;;;;;8.09;100.00;101376.00;4938443;28;20209;-76
2020/12/21 06:24:01;;;;;;;1.40;0.20;;;;;;;8.11;100.00;101379.13;4953343;28;20461;-75
2020/12/21 06:26:35;;;;;;;2.00;0.47;;;;;;;8.21;100.00;101384.16;4955900;28;20575;-76
2020/12/21 06:29:03;;;;;;;2.50;0.40;;;;;;;8.33;100.00;101378.94;4969997;28;20865;-76
2020/12/21 06:31:49;;;;;;;1.80;0.33;;;;;;;8.34;100.00;101380.53;4967086;28;20445;-77
2020/12/21 06:34:17;;;;;;;1.70;0.20;;;;;;;8.27;100.00;101392.84;4965844;28;20476;-76
2020/12/21 06:36:45;;;;;;;2.17;0.50;;;;;;;8.34;100.00;101391.28;4969646;28;20806;-75
2020/12/21 06:39:22;;;;;;;1.97;0.53;;;;;;;8.36;100.00;101383.69;4969630;28;20432;-77
2020/12/21 06:41:47;;;;;;;1.57;0.40;;;;;;;8.31;100.00;101385.75;4950206;28;20464;-76
2020/12/21 06:44:13;;;;;;;1.53;0.30;;;;;;;8.16;100.00;101384.34;4950294;28;20453;-75
2020/12/21 06:46:39;;;;;;;1.30;0.30;;;;;;;8.06;100.00;101385.47;4968293;28;20658;-76
2020/12/21 06:49:05;;;;;;;2.50;0.70;;;;;;;8.09;100.00;101389.44;4981745;28;20562;-75
2020/12/21 06:51:32;;;;;;;2.80;0.50;;;;;;;8.22;100.00;101388.44;4971599;28;20309;-76
2020/12/21 06:54:07;;;;;;;1.53;0.33;;;;;;;8.34;100.00;101383.22;4950499;28;21035;-76
2020/12/21 06:56:33;;;;;;;1.57;0.30;;;;;;;8.18;100.00;101387.50;4954960;28;20524;-76
2020/12/21 06:58:59;;;;;;;1.57;0.20;;;;;;;8.17;100.00;101402.00;4969003;28;20515;-76
2020/12/21 07:01:27;;;;;;;2.17;0.40;;;;;;;8.13;100.00;101384.97;4969615;28;20267;-76
2020/12/21 07:04:13;;;;;;;1.47;0.20;;;;;;;8.13;100.00;101393.03;4967370;28;20434;-75
2020/12/21 07:06:39;;;;;;;1.97;0.30;;;;;;;8.32;100.00;101393.50;4907422;29;20444;-76
2020/12/21 07:09:05;;;;;;;1.57;0.40;;;;;;;8.41;100.00;101393.44;4910730;29;20479;-76
2020/12/21 07:11:32;;;;;;;1.43;0.30;;;;;;;8.37;100.00;101392.50;4910924;29;20509;-77
2020/12/21 07:13:57;;;;;;;2.13;0.40;;;;;;;8.41;100.00;101394.25;4892188;29;20528;-76
2020/12/21 07:16:23;;;;;;;1.87;0.30;;;;;;;8.45;100.00;101395.19;4911475;29;20965;-76
2020/12/21 07:18:49;;;;;;;1.30;0.10;;;;;;;8.47;100.00;101406.38;4906696;29;20194;-77
2020/12/21 07:21:16;;;;;;;2.87;0.43;;;;;;;8.06;100.00;101404.25;4912112;29;20933;-77
2020/12/21 07:23:43;;;;;;;1.87;0.40;;;;;;;8.25;100.00;101403.13;4905276;29;20480;-76
2020/12/21 07:26:11;;;;;;;1.97;0.33;;;;;;;8.24;100.00;101410.38;4909354;29;20488;-77
2020/12/21 07:28:37;;;;;;;1.20;0.30;;;;;;;8.41;100.00;101410.34;4909040;29;21011;-76
2020/12/21 07:31:16;;;;;;;1.40;0.30;;;;;;;8.36;100.00;101415.09;4913987;29;20432;-76
2020/12/21 07:33:48;;;;;;;1.70;0.40;;;;;;;8.25;100.00;101414.66;4895374;29;20188;-76
2020/12/21 07:36:14;;;;;;;1.33;0.10;;;;;;;8.04;100.00;101416.41;4913501;29;20475;-76
2020/12/21 07:38:40;;;;;;;1.50;0.20;;;;;;;8.13;100.00;101422.53;4904168;29;20465;-76
2020/12/21 07:41:05;;;;;;;1.87;0.30;;;;;;;8.01;100.00;101411.69;4911909;29;20444;-76
2020/12/21 07:43:55;;;;;;;1.30;0.20;;;;;;;7.98;100.00;101417.66;4933031;28;20199;-76
2020/12/21 07:46:23;;;;;;;1.50;0.20;;;;;;;7.89;100.00;101415.03;4869223;29;20228;-76
2020/12/21 07:48:51;;;;;;;1.70;0.33;;;;;;;8.02;100.00;101416.72;4872989;29;20477;-76
2020/12/21 07:51:19;;;;;;;1.40;0.17;;;;;;;7.92;100.00;101417.06;4882159;29;20534;-76
2020/12/21 07:53:46;;;;;;;1.40;0.27;;;;;;;8.05;100.00;101421.44;4881518;29;20449;-75
2020/12/21 07:56:15;;;;;;;1.47;0.30;;;;;;;8.04;100.00;101411.84;4869249;29;20469;-76
2020/12/21 07:58:41;;;;;;;2.20;0.30;;;;;;;7.71;100.00;101415.31;4877675;29;20458;-75
2020/12/21 08:01:07;;;;;;;2.03;0.20;;;;;;;7.61;100.00;101418.31;4859891;29;20457;-75
2020/12/21 08:03:37;;;;;;;1.97;0.23;;;;;;;7.76;100.00;101425.91;4879085;29;20257;-75
2020/12/21 08:06:13;;;;;;;1.30;0.23;;;;;;;7.68;100.00;101416.78;4859888;29;20489;-75
2020/12/21 08:08:40;;;;;;;1.20;0.20;;;;;;;7.55;100.00;101415.00;4873321;29;20564;-76
2020/12/21 08:11:15;;;;;;;1.97;0.30;;;;;;;7.64;100.00;101413.16;4872585;29;20445;-75
2020/12/21 08:13:49;;;;;;;1.53;0.30;;;;;;;7.83;100.00;101413.59;4873345;29;20810;-75
2020/12/21 08:16:15;;;;;;;1.57;0.27;;;;;;;7.86;100.00;101417.53;4877165;29;20469;-76
2020/12/21 08:18:43;;;;;;;1.50;0.30;;;;;;;7.93;100.00;101415.16;4876813;29;20451;-76
2020/12/21 08:21:13;;;;;;;1.40;0.23;;;;;;;7.72;100.00;101419.59;4875800;29;20994;-76
2020/12/21 08:23:39;;;;;;;2.03;0.40;;;;;;;7.68;100.00;101415.97;4943302;28;20961;-75
2020/12/21 08:26:13;;;;;;;1.80;0.37;;;;;;;7.54;100.00;101415.34;4966260;28;20481;-75
2020/12/21 08:28:38;;;;;;;1.57;0.23;;;;;;;7.60;100.00;101422.13;4970870;28;20477;-76
2020/12/21 08:31:11;;;;;;;1.33;0.20;;;;;;;7.62;100.00;101420.72;4967872;28;20452;-75
2020/12/21 08:33:40;;;;;;;2.07;0.60;;;;;;;7.54;100.00;101420.69;4971697;28;20664;-76
2020/12/21 08:36:18;;;;;;;1.87;0.20;;;;;;;7.44;100.00;101423.69;4952487;28;20473;-75
2020/12/21 08:38:45;;;;;;;1.93;0.30;;;;;;;7.52;100.00;101420.22;4953214;28;20440;-76
2020/12/21 08:41:11;;;;;;;1.10;0.10;;;;;;;7.44;100.00;101419.13;4965295;28;20432;-76
2020/12/21 08:43:37;;;;;;;1.57;0.33;;;;;;;7.68;100.00;101418.66;4965245;28;20445;-75
2020/12/21 08:46:11;;;;;;;2.43;0.20;;;;;;;7.74;100.00;101420.06;4954455;28;20515;-76
2020/12/21 08:48:42;;;;;;;1.57;0.23;;;;;;;7.68;100.00;101424.00;4970797;28;20472;-75
2020/12/21 08:51:07;;;;;;;1.40;0.10;;;;;;;7.53;100.00;101413.78;4938417;28;20818;-75
2020/12/21 08:53:34;;;;;;;1.90;0.20;;;;;;;7.53;100.00;101416.47;4967301;28;20446;-75
2020/12/21 08:56:08;;;;;;;1.10;0.10;;;;;;;7.60;100.00;101422.91;4952231;28;20201;-76
2020/12/21 08:58:34;;;;;;;1.50;0.17;;;;;;;7.56;100.00;101424.66;4966266;28;20524;-76
2020/12/21 09:01:03;;;;;;;1.70;0.27;;;;;;;7.63;100.00;101419.59;4972662;28;20470;-76
2020/12/21 09:03:29;;;;;;;2.63;0.57;;;;;;;7.79;100.00;101414.53;4973184;28;20437;-75
2020/12/21 09:05:56;;;;;;;1.40;0.17;;;;;;;8.02;100.00;101415.94;4971248;28;20482;-76
2020/12/21 09:08:22;;;;;;;1.40;0.20;;;;;;;8.23;100.00;101405.34;4973471;28;20225;-76
2020/12/21 09:10:48;;;;;;;3.93;0.30;;;;;;;8.28;100.00;101408.66;4954466;28;20516;-76
2020/12/21 09:13:13;;;;;;;1.50;0.20;;;;;;;8.23;100.00;101414.16;4953488;28;20868;-76
2020/12/21 09:15:39;;;;;;;1.50;0.23;;;;;;;8.32;100.00;101422.22;4969567;28;20238;-76
2020/12/21 09:18:05;;;;;;;1.30;0.20;;;;;;;8.45;100.00;101427.38;4951893;28;20178;-75
2020/12/21 09:20:30;;;;;;;1.67;0.10;;;;;;;8.58;100.00;101421.00;4966976;28;20603;-76
2020/12/21 09:22:57;;;;;;;1.40;0.20;;;;;;;8.78;100.00;101425.66;4968900;28;20194;-76
2020/12/21 09:25:22;;;;;;;1.30;0.23;;;;;;;8.50;100.00;101424.50;4972113;28;20594;-76
2020/12/21 09:27:48;;;;;;;1.60;0.20;;;;;;;8.74;100.00;101424.75;4968801;28;20462;-76
2020/12/21 09:30:13;;;;;;;1.10;0.10;;;;;;;8.75;100.00;101430.91;4968996;28;20178;-76
2020/12/21 09:32:39;;;;;;;1.83;0.40;;;;;;;8.83;100.00;101428.16;4967968;28;20209;-75
2020/12/21 09:35:04;;;;;;;1.77;0.27;;;;;;;9.15;100.00;101413.31;4974281;28;20210;-75
2020/12/21 09:37:30;;;;;;;1.50;0.27;;;;;;;8.96;100.00;101416.41;4954733;28;20241;-75
2020/12/21 09:39:55;;;;;;;2.77;0.30;;;;;;;8.95;100.00;101422.91;4954208;28;20271;-75
2020/12/21 09:42:21;;;;;;;1.77;0.30;;;;;;;8.96;100.00;101419.09;4968887;28;20198;-76
2020/12/21 09:44:49;;;;;;;2.50;0.40;;;;;;;9.03;100.00;101422.06;4970509;28;20202;-76
2020/12/21 09:47:14;;;;;;;1.40;0.30;;;;;;;8.85;100.00;101420.56;4973084;28;20373;-75
2020/12/21 09:49:40;;;;;;;1.60;0.23;;;;;;;8.63;100.00;101420.81;4957133;28;20914;-76
2020/12/21 09:52:05;;;;;;;2.00;0.30;;;;;;;8.61;100.00;101412.31;4968335;28;20190;-75
2020/12/21 09:54:31;;;;;;;1.40;0.20;;;;;;;8.73;100.00;101417.00;4971281;28;20293;-75
2020/12/21 09:56:57;;;;;;;1.50;0.20;;;;;;;9.02;100.00;101423.16;4973276;28;20213;-76
2020/12/21 09:59:22;;;;;;;1.70;0.20;;;;;;;9.12;100.00;101419.31;4965125;28;20211;-75
2020/12/21 10:01:48;;;;;;;1.60;0.30;;;;;;;9.18;100.00;101411.84;4973823;28;20474;-76
2020/12/21 10:04:13;;;;;;;1.93;0.30;;;;;;;9.12;100.00;101402.44;4968375;28;20248;-75
2020/12/21 10:06:39;;;;;;;1.47;0.10;;;;;;;8.96;100.00;101407.56;4975829;28;20250;-76
2020/12/21 10:09:05;;;;;;;1.20;0.10;;;;;;;8.96;100.00;101399.50;4971296;28;20875;-75
2020/12/21 10:11:30;;;;;;;1.20;0.10;;;;;;;9.00;100.00;101395.84;4972903;28;20512;-75
2020/12/21 10:13:56;;;;;;;1.53;0.20;;;;;;;9.12;100.00;101402.44;4969095;28;20491;-75
2020/12/21 10:16:21;;;;;;;1.40;0.20;;;;;;;9.02;100.00;101396.28;4972427;28;20210;-75
2020/12/21 10:18:47;;;;;;;1.37;0.20;;;;;;;8.83;100.00;101390.56;4969311;28;20207;-76
2020/12/21 10:21:12;;;;;;;1.53;0.33;;;;;;;9.08;100.00;101391.50;4972370;28;20186;-75
2020/12/21 10:23:38;;;;;;;1.30;0.20;;;;;;;8.96;100.00;101394.91;4950537;28;20186;-74
2020/12/21 10:26:03;;;;;;;1.20;0.20;;;;;;;8.91;100.00;101392.41;4963442;28;20211;-74
2020/12/21 10:28:29;;;;;;;1.50;0.30;;;;;;;9.27;100.00;101388.41;4972719;28;20264;-77
2020/12/21 10:30:55;;;;;;;1.70;0.30;;;;;;;9.13;100.00;101377.13;4954362;28;20181;-75
2020/12/21 10:33:20;;;;;;;1.80;0.40;;;;;;;9.30;100.00;101377.78;4956082;28;20195;-75
2020/12/21 10:35:46;;;;;;;1.37;0.23;;;;;;;9.45;99.93;101373.69;4969218;28;20197;-75
2020/12/21 10:38:12;;;;;;;1.33;0.20;;;;;;;9.46;99.66;101367.22;4955713;28;20192;-75
2020/12/21 10:40:37;;;;;;;1.30;0.20;;;;;;;9.44;99.37;101366.75;4948441;28;20178;-75
2020/12/21 10:43:03;;;;;;;1.60;0.20;;;;;;;9.69;98.93;101363.06;4972811;28;20842;-75
2020/12/21 10:45:28;;;;;;;1.40;0.20;;;;;;;9.85;97.99;101361.31;4969088;28;20202;-75
2020/12/21 10:47:54;;;;;;;2.20;0.20;;;;;;;9.93;97.56;101357.75;4970923;28;20205;-75
2020/12/21 10:50:19;;;;;;;1.47;0.30;;;;;;;9.65;97.64;101360.25;4965559;28;20542;-76
2020/12/21 10:52:45;;;;;;;1.43;0.27;;;;;;;9.79;97.91;101349.19;4966153;28;20184;-76
2020/12/21 10:55:11;;;;;;;1.50;0.20;;;;;;;9.93;96.95;101353.16;4965290;28;20568;-76
2020/12/21 10:57:36;;;;;;;1.40;0.20;;;;;;;9.66;97.78;101342.97;4972743;28;20673;-76
2020/12/21 11:00:05;;;;;;;1.30;0.10;;;;;;;9.91;97.89;101333.88;4943891;28;20192;-76
2020/12/21 11:02:30;;;;;;;1.30;0.20;;;;;;;9.82;97.46;101345.84;4949259;28;20294;-75
2020/12/21 11:04:55;;;;;;;1.30;0.30;;;;;;;9.86;97.72;101336.78;4961933;28;21213;-76
2020/12/21 11:07:21;;;;;;;1.03;0.10;;;;;;;9.70;97.57;101337.72;4952838;28;20189;-74
2020/12/21 11:09:47;;;;;;;1.10;0.20;;;;;;;9.46;97.32;101337.66;4969482;28;20221;-76
2020/12/21 11:12:12;;;;;;;1.10;0.10;;;;;;;9.57;97.88;101341.50;4969203;28;20223;-75
2020/12/21 11:14:38;;;;;;;1.40;0.33;;;;;;;9.40;98.51;101328.22;4973203;28;20291;-77
2020/12/21 11:17:03;;;;;;;1.77;0.30;;;;;;;9.60;98.29;101338.16;4968300;28;20273;-75
2020/12/21 11:19:29;;;;;;;1.53;0.20;;;;;;;9.60;97.76;101336.25;4966700;28;20266;-76
2020/12/21 11:21:54;;;;;;;1.70;0.20;;;;;;;9.62;97.83;101327.88;4968366;28;20183;-76
2020/12/21 11:24:20;;;;;;;1.27;0.20;;;;;;;9.63;97.87;101315.97;4967715;28;20202;-77
2020/12/21 11:26:50;;;;;;;2.03;0.20;;;;;;;9.64;98.22;101312.94;4973220;28;20186;-76